AirNav   Everest Fuels
 
 1012 users online  

92VA New Quarter Farm Airport
Gloucester, Virginia, USA

GOING TO GLOUCESTER?


FAA INFORMATION EFFECTIVE 18 JUNE 2020

Location

FAA Identifier: 92VA
Lat/Long: 37-20-41.0000N 076-33-52.0000W
37-20.683333N 076-33.866667W
37.3447222,-76.5644444
(estimated)
Elevation: 38 ft. / 12 m (estimated)
Variation: 10W (1990)
From city: 5 miles SW of GLOUCESTER, VA
Time zone: UTC -4 (UTC -5 during Standard Time)
Zip code: 23061

Airport Operations

Airport use: Private use. Permission required prior to landing
Activation date: 09/1994
Control tower: no
ARTCC: WASHINGTON CENTER
FSS: LEESBURG FLIGHT SERVICE STATION
Attendance: UNATNDD
Wind indicator: yes
Segmented circle: no

Airport Communications

WX AWOS-3 at JGG (10 nm SW): 120.625 (757-220-8810)
WX ASOS at PHF (13 nm S): PHONE 757-874-3682
WX AWOS-3 at FYJ (14 nm NW): 132.825 (804-785-2307)
WX AWOS-3 at W75 (16 nm N): 118.45 (804-758-8592)

Nearby radio navigation aids

VOR radial/distance  VOR name  Freq  Var
HCMr139/9.4HARCUM VORTAC108.8007W
HPWr094/26.3HOPEWELL VORTAC112.0006W
CCVr280/27.0CAPE CHARLES VORTAC112.2010W
ORFr334/32.3NORFOLK VORTAC116.9007W
RICr114/37.2RICHMOND VORTAC114.1009W

 
NDB name  Hdg/Dist  Freq  Var  ID
WAKEFIELD055/30.127411WAKQ .- -.- --.-

Airport Services

Runway Information

Runway 15/33

Dimensions: 3100 x 65 ft. / 945 x 20 m
Surface: turf, in good condition
RUNWAY 15  RUNWAY 33
Traffic pattern: leftright
Obstructions: 80 ft. trees, 100 ft. from runwaynone

Airport Ownership and Management from official FAA records

Ownership: Privately-owned
Owner: RICHARD H LEIGH
4714 NEW QUARTER FARM LN
GLOUCESTER, VA 23061
Phone 804-693-4520
Manager: RICHARD H LEIGH
4714 NEW QUARTER FARM LN
GLOUCESTER, VA 23061
Phone 804-693-4520

Airport Operational Statistics

Aircraft based on the field: 6
Single engine airplanes: 2
Ultralights: 4
    

Additional Remarks

FOR CD CTC NORFOLK APCH AT 757-464-0757.

Instrument Procedures

There are no published instrument procedures at 92VA.

Some nearby airports with instrument procedures:

W94 - Camp Peary Landing Strip Airport (4 nm SW)
KJGG - Williamsburg-Jamestown Airport (10 nm SW)
KFAF - Felker Army Airfield (13 nm S)
KPHF - Newport News/Williamsburg International Airport (13 nm S)
KFYJ - Middle Peninsula Regional Airport (14 nm NW)
W75 - Hummel Field Airport (16 nm N)
KLFI - Langley Air Force Base (18 nm SE)
 
Loc | Ops | Rwys | IFR | FBO | Links
Com | Nav | Svcs | Stats | Notes
Area around 92VA (New Quarter Farm Airport)
 
Road maps at: MapQuest Bing Google
 
Aerial photo
No photo
 
Sectional chart

 
Airport distance calculator
Flying to New Quarter Farm Airport? Find the distance to fly.

From to 92VA

Sunrise and sunset
Times for 05-Jul-2020
 Local
(UTC-4)
 Zulu
(UTC)
Morning civil twilight05:2209:22
Sunrise05:5309:53
Sunset20:2900:29
Evening civil twilight21:0001:00

Current date and time
Zulu (UTC)  05-Jul-2020 17:12:12
Local (UTC-4)  05-Jul-2020 13:12:12
 
METAR
KJGG 
10nm SW 
051655Z AUTO A3003 RMK AO1
KPHF 
13nm S 
051654Z 29004KT 10SM SCT100 27/22 A3003 RMK AO2 SLP169 T02720222
KFAF 
14nm S 
051656Z 32005KT 10SM FEW120 26/23 A3001 RMK AO2A SLP165 T02560229 $
KFYJ 
14nm NW 
051655Z AUTO 00000KT 7SM BKN080 BKN120 24/22 A3005 RMK AO1 T02380220
KW75 
16nm N 
051655Z AUTO 00000KT 10SM SCT090 28/23 A3003 RMK AO1 T02830231
KLFI 
19nm SE 
051656Z AUTO 03003KT 10SM CLR 28/20 A3003 RMK AO2 SLP175 T02760204 $
TAF
KPHF 
13nm S 
051120Z 0512/0612 VRB02KT 5SM BR SCT090 TEMPO 0512/0513 2SM BR BKN006 FM051400 14005KT P6SM BKN090 FM051800 15007KT P6SM SCT050 FM060000 18004KT P6SM SCT150 FM060600 21004KT P6SM SCT150
KLFI 
19nm SE 
050024Z 0500/0524 10009KT 9999 SCT040 QNH2990INS TX25/0500Z TN22/0510Z LAST NO AMDS AFT 0500 NEXT 0709
NOTAMs
Click for the latest NOTAMs
NOTAMs are issued by the DoD/FAA and will open in a separate window not controlled by AirNav.

 

 
 

Would you like to see your business listed on this page?

 If your business provides an interesting product or service to pilots, flight crews, aircraft, or users of the New Quarter Farm Airport, you should consider listing it here.  To start the listing process, click on the button below
 
Add a business
 

Other Pages about New Quarter Farm Airport

Update a link
 
Copyright © AirNav, LLC. All rights reserved. Privacy Policy  Contact